Time;durP1;ratioP1;P1;durP2;ratioP2;P2;SDS_P1;SDS_P2;PMS_P1;PMS_P2;Temp;Humidity;BMP_temperature;BMP_pressure;BME280_temperature;BME280_humidity;BME280_pressure;Samples;Min_cycle;Max_cycle;Signal;HPM_P1;HPM_P2
2023/12/29 00:01:18;;;;;;;7.85;5.60;;;;;;;16.36;45.70;93456.59;5009645;28;20050;-87
2023/12/29 00:03:43;;;;;;;7.50;6.15;;;;;;;16.37;45.36;93460.06;5024787;28;20037;-88
2023/12/29 00:06:09;;;;;;;8.40;6.40;;;;;;;16.39;45.56;93454.84;5039641;28;20044;-87
2023/12/29 00:08:36;;;;;;;8.40;6.43;;;;;;;16.32;45.71;93458.06;5009557;28;20104;-88
2023/12/29 00:11:01;;;;;;;8.70;5.68;;;;;;;16.34;45.70;93464.53;5021379;28;20041;-87
2023/12/29 00:13:27;;;;;;;8.73;5.95;;;;;;;16.35;45.57;93466.00;5028949;28;20087;-87
2023/12/29 00:15:53;;;;;;;6.90;5.35;;;;;;;16.37;45.25;93462.78;5045537;28;20094;-87
2023/12/29 00:18:18;;;;;;;7.50;6.15;;;;;;;16.32;45.58;93471.72;5040662;28;20087;-87
2023/12/29 00:20:44;;;;;;;6.85;5.32;;;;;;;16.36;45.57;93475.69;5017313;28;20153;-87
2023/12/29 00:23:10;;;;;;;8.45;6.10;;;;;;;16.36;45.12;93464.78;5015951;28;20098;-87
2023/12/29 00:25:37;;;;;;;9.43;5.75;;;;;;;16.30;45.79;93464.03;5024794;28;20496;-88
2023/12/29 00:28:03;;;;;;;8.40;5.85;;;;;;;16.33;45.91;93443.94;5012147;28;20125;-87
2023/12/29 00:30:32;;;;;;;9.00;6.00;;;;;;;16.35;45.42;93427.06;5005622;28;20044;-89
2023/12/29 00:32:57;;;;;;;7.75;5.40;;;;;;;16.33;45.53;93433.03;5027396;28;20040;-87
2023/12/29 00:35:23;;;;;;;8.00;5.68;;;;;;;16.35;45.77;93424.34;5044924;28;20037;-89
2023/12/29 00:37:49;;;;;;;8.50;6.13;;;;;;;16.36;45.40;93415.66;5012976;28;20114;-88
2023/12/29 00:40:15;;;;;;;7.57;6.28;;;;;;;16.37;45.09;93408.97;5035406;28;20476;-88
2023/12/29 00:42:40;;;;;;;8.15;6.40;;;;;;;16.35;45.93;93416.16;5012892;28;20063;-88
2023/12/29 00:45:06;;;;;;;7.20;5.47;;;;;;;16.36;45.57;93423.84;5019748;28;20736;-87
2023/12/29 00:47:32;;;;;;;7.78;5.82;;;;;;;16.31;45.67;93437.50;5037365;28;20132;-87
2023/12/29 00:49:57;;;;;;;7.82;6.18;;;;;;;16.31;46.10;93442.94;5012668;28;20107;-86
2023/12/29 00:52:23;;;;;;;6.78;5.30;;;;;;;16.35;45.74;93451.63;5027614;28;20037;-87
2023/12/29 00:54:49;;;;;;;9.57;6.20;;;;;;;16.32;45.63;93453.38;5035604;28;20087;-88
2023/12/29 00:57:14;;;;;;;7.68;5.55;;;;;;;16.32;45.96;93460.81;5064615;28;20035;-87
2023/12/29 00:59:41;;;;;;;7.05;5.75;;;;;;;16.31;45.85;93456.59;5048413;28;20410;-87
2023/12/29 01:02:06;;;;;;;7.65;5.07;;;;;;;16.39;45.88;93455.59;5011956;28;20041;-87
2023/12/29 01:04:31;;;;;;;7.25;5.80;;;;;;;16.37;45.48;93446.41;5008555;28;20048;-87
2023/12/29 01:06:57;;;;;;;6.70;5.88;;;;;;;16.33;45.79;93446.66;5013196;28;20042;-87
2023/12/29 01:09:22;;;;;;;8.02;6.15;;;;;;;16.31;45.89;93445.66;4992111;28;20565;-87
2023/12/29 01:11:48;;;;;;;6.85;5.82;;;;;;;16.30;45.76;93452.38;5006501;28;20041;-87
2023/12/29 01:14:13;;;;;;;7.30;5.78;;;;;;;16.34;45.32;93447.41;5044395;28;20039;-87
2023/12/29 01:16:39;;;;;;;7.25;5.43;;;;;;;16.33;45.71;93443.19;5019189;28;20048;-87
2023/12/29 01:19:05;;;;;;;7.78;5.03;;;;;;;16.32;45.91;93456.09;5008157;28;20579;-90
2023/12/29 01:21:33;;;;;;;6.95;5.68;;;;;;;16.33;45.80;93449.41;5023610;28;20073;-88
2023/12/29 01:24:00;;;;;;;8.35;6.03;;;;;;;16.32;45.46;93445.19;4992550;28;20037;-88
2023/12/29 01:26:26;;;;;;;7.25;5.30;;;;;;;16.38;45.09;93453.38;5016554;28;20041;-87
2023/12/29 01:28:51;;;;;;;7.00;5.32;;;;;;;16.36;45.70;93462.03;4992446;28;20049;-87
2023/12/29 01:31:17;;;;;;;7.05;5.95;;;;;;;16.29;45.76;93450.88;5002170;28;20048;-87
2023/12/29 01:33:44;;;;;;;7.40;5.55;;;;;;;16.36;45.60;93462.03;5053420;28;20052;-88
2023/12/29 01:36:09;;;;;;;6.97;5.50;;;;;;;16.26;46.18;93474.44;5012324;28;20054;-87
2023/12/29 01:38:35;;;;;;;6.38;5.30;;;;;;;16.31;45.88;93465.50;5008389;28;20044;-87
2023/12/29 01:41:02;;;;;;;9.85;6.25;;;;;;;16.38;45.42;93465.03;4992235;28;20060;-87
2023/12/29 01:43:27;;;;;;;7.82;5.45;;;;;;;16.34;45.85;93456.34;5024268;28;20758;-88
2023/12/29 01:45:52;;;;;;;8.98;6.07;;;;;;;16.39;45.53;93465.78;5020927;28;20492;-88
2023/12/29 01:48:18;;;;;;;9.32;6.30;;;;;;;16.32;45.99;93464.28;5025991;28;20107;-87
2023/12/29 01:50:43;;;;;;;7.32;5.32;;;;;;;16.35;45.79;93457.81;5008150;28;20480;-87
2023/12/29 01:53:09;;;;;;;6.80;5.13;;;;;;;16.34;45.56;93467.25;5005968;28;20045;-88
2023/12/29 01:55:34;;;;;;;8.35;5.82;;;;;;;16.30;45.83;93468.72;5027381;28;20044;-89
2023/12/29 01:58:00;;;;;;;7.15;5.75;;;;;;;16.31;45.87;93462.03;5012327;28;20488;-88
2023/12/29 02:00:26;;;;;;;7.45;5.72;;;;;;;16.32;45.73;93458.81;5014958;28;20037;-87
2023/12/29 02:02:51;;;;;;;7.45;5.30;;;;;;;16.30;45.61;93450.38;5044865;28;20526;-88
2023/12/29 02:05:17;;;;;;;7.18;5.82;;;;;;;16.34;45.68;93452.88;5011126;28;20041;-89
2023/12/29 02:07:43;;;;;;;6.32;5.00;;;;;;;16.32;45.75;93444.44;5008850;28;20063;-87
2023/12/29 02:10:09;;;;;;;7.60;5.88;;;;;;;16.31;45.74;93446.41;5030868;28;20031;-88
2023/12/29 02:12:36;;;;;;;7.03;5.60;;;;;;;16.36;45.54;93436.75;5031845;28;20047;-88
2023/12/29 02:15:03;;;;;;;7.22;5.43;;;;;;;16.36;45.66;93434.03;5031384;28;20036;-87
2023/12/29 02:17:31;;;;;;;6.45;5.45;;;;;;;16.33;45.82;93438.47;5004281;28;20045;-87
2023/12/29 02:20:00;;;;;;;6.70;5.25;;;;;;;16.26;45.79;93441.69;5047306;28;20041;-87
2023/12/29 02:22:25;;;;;;;6.45;5.13;;;;;;;16.28;45.91;93433.75;5012644;28;20570;-88
2023/12/29 02:24:52;;;;;;;8.10;5.57;;;;;;;16.27;45.85;93437.72;4991797;28;20049;-87
2023/12/29 02:27:25;;;;;;;8.43;6.07;;;;;;;16.40;45.71;93442.72;5020046;28;20068;-87
2023/12/29 02:30:11;;;;;;;7.47;5.45;;;;;;;16.31;45.87;93440.22;5043591;28;20604;-87
2023/12/29 02:32:41;;;;;;;6.28;5.00;;;;;;;16.35;45.63;93436.00;5059713;28;20040;-87
2023/12/29 02:35:12;;;;;;;7.43;5.47;;;;;;;16.31;45.99;93437.50;5040732;28;20053;-87
2023/12/29 02:37:37;;;;;;;7.10;5.72;;;;;;;16.32;45.53;93442.44;5013473;28;20094;-87
2023/12/29 02:40:03;;;;;;;6.90;5.65;;;;;;;16.31;46.07;93440.22;5033673;28;20042;-87
2023/12/29 02:42:28;;;;;;;7.13;5.38;;;;;;;16.29;46.00;93448.16;5045676;28;20399;-87
2023/12/29 02:44:54;;;;;;;7.32;5.43;;;;;;;16.29;45.50;93432.53;5034231;28;20404;-87
2023/12/29 02:47:21;;;;;;;7.65;5.93;;;;;;;16.31;45.85;93430.06;5030855;28;20504;-87
2023/12/29 02:49:46;;;;;;;6.63;4.78;;;;;;;16.32;45.80;93428.06;5011826;28;20041;-87
2023/12/29 02:52:12;;;;;;;7.65;5.60;;;;;;;16.35;45.71;93427.06;5041750;28;20104;-88
2023/12/29 02:54:37;;;;;;;7.03;5.03;;;;;;;16.32;45.68;93423.34;4995303;28;20041;-89
2023/12/29 02:57:03;;;;;;;6.80;5.20;;;;;;;16.32;45.65;93426.09;5011931;28;20037;-87
2023/12/29 02:59:29;;;;;;;5.85;4.90;;;;;;;16.39;45.28;93424.84;5030501;28;20098;-87
2023/12/29 03:01:54;;;;;;;7.07;5.38;;;;;;;16.35;45.32;93427.81;5020099;28;20510;-87
2023/12/29 03:04:19;;;;;;;5.68;4.60;;;;;;;16.33;45.71;93433.03;5013704;28;20045;-88
2023/12/29 03:06:45;;;;;;;7.55;5.65;;;;;;;16.26;45.90;93427.31;5047746;28;20341;-87
2023/12/29 03:09:10;;;;;;;7.60;5.53;;;;;;;16.30;45.56;93419.63;5010768;28;20049;-87
2023/12/29 03:11:36;;;;;;;8.02;5.47;;;;;;;16.34;45.86;93417.41;5025342;28;20044;-87
2023/12/29 03:14:01;;;;;;;6.03;4.93;;;;;;;16.27;45.95;93420.63;5027832;28;20041;-87
2023/12/29 03:16:26;;;;;;;6.07;4.75;;;;;;;16.30;45.60;93406.00;5034957;28;20642;-89
2023/12/29 03:18:53;;;;;;;6.68;4.78;;;;;;;16.28;45.88;93419.38;5011186;28;20045;-87
2023/12/29 03:21:18;;;;;;;7.15;5.43;;;;;;;16.33;45.71;93405.00;4996479;28;20067;-87
2023/12/29 03:23:44;;;;;;;5.15;4.63;;;;;;;16.30;45.73;93398.56;5035586;28;20484;-87
2023/12/29 03:26:09;;;;;;;5.70;4.80;;;;;;;16.36;45.65;93406.75;5031928;28;20037;-87
2023/12/29 03:28:35;;;;;;;6.82;5.13;;;;;;;16.35;45.96;93397.06;5050798;28;20510;-88
2023/12/29 03:31:00;;;;;;;6.63;5.22;;;;;;;16.31;46.06;93394.59;5031107;28;20476;-87
2023/12/29 03:33:25;;;;;;;6.72;4.88;;;;;;;16.31;45.71;93389.13;5043099;28;20052;-87
2023/12/29 03:35:51;;;;;;;6.93;5.22;;;;;;;16.33;45.92;93396.81;5010710;28;20050;-88
2023/12/29 03:38:17;;;;;;;6.03;4.88;;;;;;;16.30;45.69;93389.63;5017989;28;20049;-87
2023/12/29 03:40:42;;;;;;;5.88;4.68;;;;;;;16.29;45.77;93379.97;5026275;28;20041;-88
2023/12/29 03:43:08;;;;;;;7.25;5.00;;;;;;;16.30;46.02;93376.72;5048022;28;20061;-87
2023/12/29 03:45:33;;;;;;;6.05;4.57;;;;;;;16.27;45.67;93390.63;5029447;28;20045;-87
2023/12/29 03:47:58;;;;;;;6.07;4.72;;;;;;;16.30;45.68;93376.72;5034007;28;20032;-87
2023/12/29 03:50:24;;;;;;;7.18;5.35;;;;;;;16.31;46.06;93372.03;5036344;28;20040;-88
2023/12/29 03:52:49;;;;;;;6.47;4.97;;;;;;;16.34;45.98;93371.03;5060036;28;20043;-87
2023/12/29 03:55:15;;;;;;;7.55;5.25;;;;;;;16.36;45.49;93369.28;5029942;28;20041;-87
2023/12/29 03:57:42;;;;;;;7.50;5.30;;;;;;;16.36;45.93;93368.56;5019591;28;20822;-87
2023/12/29 04:00:11;;;;;;;7.25;4.75;;;;;;;16.38;45.69;93369.53;5037698;28;20045;-87
2023/12/29 04:02:36;;;;;;;6.78;4.97;;;;;;;16.34;45.77;93371.03;5048410;28;20051;-87
2023/12/29 04:05:05;;;;;;;6.80;5.15;;;;;;;16.32;46.04;93370.78;5030345;28;20041;-88
2023/12/29 04:07:30;;;;;;;5.82;4.85;;;;;;;16.32;46.09;93373.50;5063002;28;20063;-87
2023/12/29 04:09:56;;;;;;;6.30;5.13;;;;;;;16.30;46.02;93357.63;5032755;28;20030;-87
2023/12/29 04:12:21;;;;;;;6.30;5.43;;;;;;;16.29;45.99;93352.69;5023192;28;20033;-87
2023/12/29 04:14:47;;;;;;;6.20;4.72;;;;;;;16.33;45.74;93348.47;5010026;28;20041;-88
2023/12/29 04:17:13;;;;;;;6.43;5.20;;;;;;;16.34;45.63;93352.69;5026954;28;20037;-87
2023/12/29 04:19:40;;;;;;;7.03;5.32;;;;;;;16.33;45.70;93345.72;5000585;28;20043;-88
2023/12/29 04:22:07;;;;;;;7.18;5.25;;;;;;;16.27;45.94;93349.69;5013828;28;20114;-87
2023/12/29 04:24:32;;;;;;;6.55;5.07;;;;;;;16.35;45.87;93348.72;5018446;28;20121;-87
2023/12/29 04:26:58;;;;;;;7.47;5.30;;;;;;;16.33;45.89;93353.16;5029214;28;20093;-87
2023/12/29 04:29:23;;;;;;;5.95;4.10;;;;;;;16.32;45.67;93354.41;5046137;28;20030;-87
2023/12/29 04:31:48;;;;;;;6.72;5.10;;;;;;;16.35;45.91;93356.91;5021041;28;20060;-87
2023/12/29 04:34:14;;;;;;;6.38;4.90;;;;;;;16.27;46.10;93352.44;5007921;28;20067;-87
2023/12/29 04:36:39;;;;;;;5.90;4.60;;;;;;;16.31;45.66;93342.75;5021477;28;20400;-87
2023/12/29 04:39:05;;;;;;;6.85;4.97;;;;;;;16.29;46.31;93347.97;5007795;28;20037;-87
2023/12/29 04:41:30;;;;;;;6.60;5.18;;;;;;;16.29;46.00;93339.03;5009620;28;20411;-87
2023/12/29 04:43:56;;;;;;;6.60;5.32;;;;;;;16.33;45.86;93336.81;5021354;28;20030;-87
2023/12/29 04:46:21;;;;;;;8.02;5.45;;;;;;;16.33;45.94;93336.81;5029296;28;20033;-87
2023/12/29 04:48:47;;;;;;;6.53;5.10;;;;;;;16.33;45.91;93337.56;5021259;28;20369;-87
2023/12/29 04:51:12;;;;;;;7.03;5.50;;;;;;;16.30;45.81;93326.88;5007497;28;20036;-87
2023/12/29 04:53:38;;;;;;;6.40;5.20;;;;;;;16.33;45.81;93325.91;5009714;28;20033;-87
2023/12/29 04:56:03;;;;;;;5.57;4.60;;;;;;;16.30;45.43;93341.28;5016657;28;20033;-86
2023/12/29 04:58:29;;;;;;;6.30;4.68;;;;;;;16.31;45.97;93336.56;5025284;28;20405;-87
2023/12/29 05:00:54;;;;;;;8.00;5.40;;;;;;;16.31;45.54;93328.38;5025378;28;20053;-88
2023/12/29 05:03:20;;;;;;;7.50;5.72;;;;;;;16.36;45.66;93325.66;5017527;28;20057;-87
2023/12/29 05:05:48;;;;;;;9.10;6.30;;;;;;;16.32;45.72;93336.06;5009192;28;20068;-87
2023/12/29 05:08:13;;;;;;;8.27;6.82;;;;;;;16.35;45.96;93339.78;5031950;28;20048;-87
2023/12/29 05:10:39;;;;;;;7.30;5.03;;;;;;;16.35;45.78;93337.06;5020036;28;20041;-87
2023/12/29 05:13:04;;;;;;;7.88;5.60;;;;;;;16.36;45.85;93338.53;5009919;28;20041;-88
2023/12/29 05:15:29;;;;;;;8.63;5.80;;;;;;;16.35;46.10;93335.06;5045451;28;20041;-87
2023/12/29 05:17:55;;;;;;;6.70;5.40;;;;;;;16.26;46.08;93343.50;5048391;28;20044;-88
2023/12/29 05:20:20;;;;;;;7.55;5.65;;;;;;;16.24;45.94;93351.44;5047750;28;20040;-87
2023/12/29 05:22:46;;;;;;;8.10;6.50;;;;;;;16.29;45.96;93341.75;5040206;28;20041;-88
2023/12/29 05:25:12;;;;;;;6.65;5.55;;;;;;;16.27;45.89;93339.53;5022303;28;20138;-87
2023/12/29 05:27:38;;;;;;;7.25;5.38;;;;;;;16.33;46.17;93340.28;5016357;28;20480;-88
2023/12/29 05:30:04;;;;;;;6.70;4.95;;;;;;;16.32;46.09;93346.97;5028271;28;20052;-87
2023/12/29 05:32:29;;;;;;;8.52;6.03;;;;;;;16.33;46.19;93334.81;5022842;28;20496;-88
2023/12/29 05:34:55;;;;;;;9.02;6.22;;;;;;;16.28;45.78;93356.66;5025274;28;20037;-86
2023/12/29 05:37:21;;;;;;;8.02;5.38;;;;;;;16.32;45.91;93348.97;5035515;28;20041;-87
2023/12/29 05:39:46;;;;;;;8.70;5.97;;;;;;;16.34;46.00;93344.50;5014539;28;20092;-88
2023/12/29 05:42:12;;;;;;;8.70;6.50;;;;;;;16.34;46.13;93332.84;5042425;28;20514;-87
2023/12/29 05:44:37;;;;;;;7.70;5.70;;;;;;;16.33;45.84;93325.91;5011934;28;20758;-87
2023/12/29 05:47:04;;;;;;;8.95;6.60;;;;;;;16.35;46.00;93334.31;5052389;28;20671;-87
2023/12/29 05:49:29;;;;;;;6.32;5.18;;;;;;;16.32;45.72;93340.78;5047768;28;20040;-87
2023/12/29 05:51:55;;;;;;;8.98;5.90;;;;;;;16.31;46.14;93340.03;5033709;28;20037;-87
2023/12/29 05:54:23;;;;;;;7.88;6.03;;;;;;;16.36;45.98;93350.19;5027837;28;20045;-87
2023/12/29 05:56:49;;;;;;;7.50;5.55;;;;;;;16.39;46.21;93351.94;5030474;28;20045;-87
2023/12/29 05:59:14;;;;;;;7.68;6.13;;;;;;;16.40;45.87;93347.22;5016110;28;20048;-87
2023/12/29 06:01:39;;;;;;;8.60;5.75;;;;;;;16.39;45.84;93343.00;4996682;28;20045;-87
2023/12/29 06:04:05;;;;;;;8.70;6.55;;;;;;;16.43;45.89;93355.16;5007598;28;20034;-87
2023/12/29 06:06:30;;;;;;;6.07;5.18;;;;;;;16.33;46.06;93345.72;5045276;28;20396;-87
2023/12/29 06:08:56;;;;;;;9.15;6.40;;;;;;;16.37;45.48;93342.75;5011522;28;20124;-87
2023/12/29 06:11:21;;;;;;;7.55;5.93;;;;;;;16.27;46.09;93364.09;5028400;28;20458;-87
2023/12/29 06:13:47;;;;;;;7.00;4.97;;;;;;;16.25;46.19;93361.09;5027616;28;20046;-87
2023/12/29 06:16:21;;;;;;;8.02;5.82;;;;;;;16.31;46.01;93367.31;5012811;28;20048;-87
2023/12/29 06:18:47;;;;;;;7.43;5.45;;;;;;;16.36;45.80;93357.63;5039479;28;20037;-87
2023/12/29 06:21:15;;;;;;;7.70;5.45;;;;;;;16.33;45.95;93353.16;5029562;28;20033;-87
2023/12/29 06:23:40;;;;;;;6.07;5.10;;;;;;;16.32;45.89;93360.63;5025846;28;20096;-87
2023/12/29 06:26:06;;;;;;;9.15;6.00;;;;;;;16.30;45.91;93348.72;5014305;28;20049;-87
2023/12/29 06:28:32;;;;;;;7.55;6.07;;;;;;;16.31;46.29;93367.31;5025407;28;20039;-87
2023/12/29 06:30:57;;;;;;;8.30;6.32;;;;;;;16.30;46.06;93362.34;5034333;28;20036;-90
2023/12/29 06:33:22;;;;;;;6.68;5.13;;;;;;;16.27;46.11;93364.09;5038476;28;20061;-87
2023/12/29 06:35:48;;;;;;;6.90;5.30;;;;;;;16.31;46.38;93363.84;5011814;28;20131;-87
2023/12/29 06:38:14;;;;;;;7.50;5.22;;;;;;;16.32;45.87;93365.31;5042416;28;20041;-87
2023/12/29 06:40:40;;;;;;;6.93;5.60;;;;;;;16.30;46.40;93363.09;5045051;28;20404;-88
2023/12/29 06:43:05;;;;;;;8.25;5.88;;;;;;;16.35;46.27;93359.63;5037302;28;20037;-87
2023/12/29 06:45:30;;;;;;;9.07;5.80;;;;;;;16.29;46.10;93363.59;5047780;28;20040;-87
2023/12/29 06:47:56;;;;;;;8.23;5.47;;;;;;;16.35;45.79;93367.06;5047779;28;20036;-88
2023/12/29 06:50:22;;;;;;;8.10;5.63;;;;;;;16.36;46.07;93372.03;5036479;28;20507;-87
2023/12/29 06:52:47;;;;;;;7.80;5.40;;;;;;;16.27;46.24;93360.63;5006092;28;20045;-88
2023/12/29 06:55:13;;;;;;;8.30;5.75;;;;;;;16.30;45.84;93356.91;5028671;28;20052;-87
2023/12/29 06:57:39;;;;;;;6.25;5.00;;;;;;;16.36;46.01;93352.19;5015035;28;20038;-89
2023/12/29 07:00:05;;;;;;;9.02;5.53;;;;;;;16.32;45.62;93349.69;5019217;28;20038;-90
2023/12/29 07:02:31;;;;;;;7.10;5.22;;;;;;;16.30;46.02;93356.91;5011509;28;20034;-88
2023/12/29 07:04:56;;;;;;;8.30;5.82;;;;;;;16.37;45.99;93367.31;5026973;28;20037;-88
2023/12/29 07:07:22;;;;;;;7.40;5.70;;;;;;;16.35;45.73;93370.53;5046969;28;20044;-87
2023/12/29 07:09:48;;;;;;;7.35;5.30;;;;;;;16.32;45.93;93362.59;5030863;28;20040;-88
2023/12/29 07:12:15;;;;;;;8.57;5.63;;;;;;;16.36;46.05;93374.75;5010426;28;20148;-87
2023/12/29 07:14:41;;;;;;;7.78;6.00;;;;;;;16.38;45.99;93374.25;5021565;28;20075;-87
2023/12/29 07:17:06;;;;;;;6.65;5.68;;;;;;;16.32;46.02;93373.50;5030878;28;20403;-88
2023/12/29 07:19:36;;;;;;;9.65;5.88;;;;;;;16.32;46.08;93385.16;5014051;28;20033;-87
2023/12/29 07:22:05;;;;;;;7.85;5.43;;;;;;;16.35;46.18;93388.88;5029241;28;20041;-87
2023/12/29 07:24:31;;;;;;;7.90;5.15;;;;;;;16.33;45.89;93375.75;5062116;28;20040;-88
2023/12/29 07:26:56;;;;;;;6.65;5.22;;;;;;;16.33;46.06;93394.09;5031919;28;20036;-88
2023/12/29 07:29:22;;;;;;;6.63;5.07;;;;;;;16.28;46.24;93398.31;5045414;28;21659;-88
2023/12/29 07:31:47;;;;;;;7.90;5.35;;;;;;;16.31;45.66;93399.28;5026482;28;20029;-88
2023/12/29 07:34:13;;;;;;;6.32;5.22;;;;;;;16.35;46.07;93402.53;5016215;28;20102;-88
2023/12/29 07:36:39;;;;;;;8.80;5.53;;;;;;;16.31;45.95;93399.28;5013954;28;20037;-88
2023/12/29 07:39:04;;;;;;;7.68;5.80;;;;;;;16.32;45.81;93398.81;5047121;28;20053;-86
2023/12/29 07:41:30;;;;;;;8.80;5.82;;;;;;;16.30;46.21;93398.56;5022300;28;20034;-86
2023/12/29 07:43:56;;;;;;;7.15;5.70;;;;;;;16.33;46.14;93389.38;5026459;28;20045;-86
2023/12/29 07:46:26;;;;;;;8.65;5.22;;;;;;;16.31;46.05;93391.84;5035354;28;20099;-89
2023/12/29 07:48:52;;;;;;;6.75;4.95;;;;;;;16.25;46.11;93391.09;5043802;28;20044;-87
2023/12/29 07:51:17;;;;;;;8.68;5.55;;;;;;;16.28;46.12;93400.28;5030055;28;20072;-88
2023/12/29 07:53:43;;;;;;;9.63;5.75;;;;;;;16.30;45.87;93393.09;5046828;28;20345;-87
2023/12/29 07:56:10;;;;;;;7.05;4.72;;;;;;;16.30;46.00;93398.56;5046000;28;20040;-87
2023/12/29 07:58:35;;;;;;;8.50;5.45;;;;;;;16.35;46.28;93399.78;5042763;28;20045;-89
2023/12/29 08:01:01;;;;;;;6.93;5.32;;;;;;;16.34;46.13;93392.84;5047008;28;20044;-87
2023/12/29 08:03:26;;;;;;;7.07;5.45;;;;;;;16.35;45.81;93391.59;5032560;28;20381;-87
2023/12/29 08:05:52;;;;;;;9.05;5.63;;;;;;;16.40;45.76;93390.88;5040964;28;20082;-87
2023/12/29 08:08:17;;;;;;;7.95;5.28;;;;;;;16.37;46.15;93392.59;5038729;28;20045;-86
2023/12/29 08:10:42;;;;;;;9.05;5.90;;;;;;;16.34;46.00;93406.50;5013061;28;20041;-89
2023/12/29 08:13:09;;;;;;;8.05;6.00;;;;;;;16.32;45.94;93400.78;5012281;28;20097;-86
2023/12/29 08:15:35;;;;;;;7.47;5.07;;;;;;;16.33;45.82;93408.47;5029999;28;20484;-87
2023/12/29 08:18:00;;;;;;;7.28;5.15;;;;;;;16.34;46.21;93398.31;5029698;28;20137;-87
2023/12/29 08:20:26;;;;;;;8.82;5.95;;;;;;;16.34;45.80;93412.69;5016008;28;20044;-87
2023/12/29 08:22:51;;;;;;;7.72;5.30;;;;;;;16.42;46.06;93418.41;5013674;28;20037;-87
2023/12/29 08:25:17;;;;;;;8.73;5.93;;;;;;;16.40;46.33;93409.97;5032159;28;20040;-88
2023/12/29 08:27:42;;;;;;;8.80;5.50;;;;;;;16.42;46.07;93418.41;5064615;28;20064;-87
2023/12/29 08:30:08;;;;;;;10.77;5.90;;;;;;;16.38;46.13;93418.66;5028390;28;20040;-86
2023/12/29 08:32:33;;;;;;;8.50;6.00;;;;;;;16.37;46.03;93421.88;5040033;28;20124;-88
2023/12/29 08:34:59;;;;;;;11.75;5.57;;;;;;;16.37;46.24;93411.69;5045333;28;20067;-87
2023/12/29 08:37:25;;;;;;;11.93;4.88;;;;;;;16.29;46.27;93415.41;5026581;28;20041;-87
2023/12/29 08:39:50;;;;;;;6.70;5.80;;;;;;;16.32;46.27;93419.88;5009377;28;20415;-87
2023/12/29 08:42:16;;;;;;;8.50;5.45;;;;;;;16.41;45.83;93414.19;5000408;28;20038;-87
2023/12/29 08:44:41;;;;;;;7.38;5.60;;;;;;;16.34;46.30;93418.16;5008718;28;20124;-88
2023/12/29 08:47:08;;;;;;;8.63;5.47;;;;;;;16.32;45.96;93417.91;5028255;28;20116;-88
2023/12/29 08:49:36;;;;;;;7.78;5.90;;;;;;;16.34;46.25;93428.31;5040745;28;20098;-87
2023/12/29 08:52:01;;;;;;;10.02;5.70;;;;;;;16.34;45.99;93433.78;5033843;28;20033;-87
2023/12/29 08:54:27;;;;;;;11.70;6.35;;;;;;;16.32;46.43;93434.25;5018009;28;20140;-89
2023/12/29 08:56:53;;;;;;;9.15;6.00;;;;;;;16.37;46.30;93438.97;5007804;28;20044;-88
2023/12/29 08:59:19;;;;;;;9.07;5.65;;;;;;;16.32;46.27;93433.53;5028540;28;20048;-88
2023/12/29 09:01:44;;;;;;;7.35;5.40;;;;;;;16.33;46.44;93443.19;5009381;28;20050;-87
2023/12/29 09:04:09;;;;;;;9.82;5.22;;;;;;;16.37;46.25;93446.41;5026551;28;20041;-88
2023/12/29 09:06:35;;;;;;;9.38;5.82;;;;;;;16.34;46.44;93441.97;5048856;28;20037;-88
2023/12/29 09:09:01;;;;;;;7.75;4.85;;;;;;;16.35;46.12;93440.72;5002719;28;20053;-87
2023/12/29 09:11:27;;;;;;;7.60;5.22;;;;;;;16.36;46.47;93439.47;5031141;28;20041;-91
2023/12/29 09:13:53;;;;;;;9.63;5.40;;;;;;;16.28;46.23;93441.94;5027549;28;20053;-88
2023/12/29 09:16:18;;;;;;;7.47;5.00;;;;;;;16.39;46.59;93438.50;5024487;28;20115;-88
2023/12/29 09:18:44;;;;;;;7.10;5.30;;;;;;;16.37;46.22;93440.97;5000887;28;20147;-89
2023/12/29 09:21:09;;;;;;;7.95;5.85;;;;;;;16.31;46.21;93443.69;5027207;28;20095;-88
2023/12/29 09:23:37;;;;;;;7.63;5.30;;;;;;;16.40;46.42;93443.44;5032668;28;20110;-89
2023/12/29 09:26:02;;;;;;;8.65;5.68;;;;;;;16.40;46.33;93445.44;5019437;28;20066;-88
2023/12/29 09:28:28;;;;;;;6.93;5.22;;;;;;;16.40;46.22;93456.34;5019091;28;20470;-88
2023/12/29 09:30:53;;;;;;;12.48;5.60;;;;;;;16.40;46.23;93448.16;5027170;28;20040;-87
2023/12/29 09:33:19;;;;;;;8.23;5.40;;;;;;;16.39;46.28;93447.41;4980793;28;20045;-87
2023/12/29 09:35:44;;;;;;;6.25;4.68;;;;;;;16.42;46.12;93451.13;4991906;28;20129;-89
2023/12/29 09:38:10;;;;;;;11.10;5.93;;;;;;;16.41;46.03;93453.13;4994782;28;20038;-90
2023/12/29 09:40:36;;;;;;;7.95;5.47;;;;;;;16.44;46.05;93432.28;5007572;28;20503;-89
2023/12/29 09:43:01;;;;;;;6.55;4.88;;;;;;;16.39;46.36;93436.50;5003275;28;20184;-87
2023/12/29 09:45:27;;;;;;;7.68;5.95;;;;;;;16.42;46.59;93438.25;5002108;28;20068;-89
2023/12/29 09:47:53;;;;;;;10.73;5.80;;;;;;;16.44;46.15;93441.22;4988730;28;20139;-87
2023/12/29 09:50:19;;;;;;;10.07;5.93;;;;;;;16.46;46.57;93422.34;5007339;28;20052;-88
2023/12/29 09:52:44;;;;;;;9.20;6.32;;;;;;;16.41;46.57;93425.84;4986088;28;20847;-91
2023/12/29 09:55:10;;;;;;;8.18;5.53;;;;;;;16.37;46.16;93438.25;4986352;28;20045;-88
2023/12/29 09:57:38;;;;;;;11.55;6.55;;;;;;;16.37;46.24;93430.81;4994872;28;20124;-87
2023/12/29 10:00:04;;;;;;;11.10;7.78;;;;;;;16.42;46.47;93432.03;5003507;28;20562;-89
2023/12/29 10:02:30;;;;;;;7.90;5.43;;;;;;;16.39;46.32;93433.03;5011089;28;20100;-88
2023/12/29 10:04:55;;;;;;;9.73;5.13;;;;;;;16.40;46.17;93438.00;5036477;28;20040;-90
2023/12/29 10:07:26;;;;;;;11.23;6.65;;;;;;;16.41;46.34;93436.75;4997695;28;20033;-88
2023/12/29 10:09:56;;;;;;;6.97;5.47;;;;;;;16.45;46.17;93439.25;5010150;28;20530;-89
2023/12/29 10:12:22;;;;;;;13.40;7.03;;;;;;;16.41;46.23;93436.00;5011268;28;20041;-89
2023/12/29 10:15:09;;;;;;;7.15;5.32;;;;;;;16.51;46.34;93420.84;5020128;28;20045;-88
2023/12/29 10:18:07;;;;;;;9.38;6.43;;;;;;;16.46;46.38;93422.34;5050257;28;20041;-88
2023/12/29 10:20:48;;;;;;;9.70;6.05;;;;;;;16.46;46.53;93416.88;5043389;28;20098;-88
2023/12/29 10:23:18;;;;;;;10.18;6.63;;;;;;;16.38;46.42;93409.72;5028890;28;20059;-87
2023/12/29 10:25:44;;;;;;;9.37;6.70;;;;;;;16.35;45.98;93406.00;5045998;28;20071;-88
2023/12/29 10:28:09;;;;;;;10.40;6.75;;;;;;;16.44;46.07;93394.09;5063546;28;20273;-87
2023/12/29 10:30:35;;;;;;;9.90;5.82;;;;;;;16.42;46.10;93397.31;5016666;28;20565;-88
2023/12/29 10:33:01;;;;;;;9.60;5.82;;;;;;;16.39;46.37;93390.13;5012196;28;20043;-88
2023/12/29 10:35:26;;;;;;;10.23;6.40;;;;;;;16.41;46.13;93384.91;5026920;28;20048;-88
2023/12/29 10:37:52;;;;;;;8.50;5.70;;;;;;;16.37;46.65;93380.94;5031461;28;20037;-90
2023/12/29 10:40:18;;;;;;;7.53;5.15;;;;;;;16.33;46.51;93380.44;5015893;28;20044;-86
2023/12/29 10:42:57;;;;;;;7.50;5.68;;;;;;;16.36;46.43;93379.47;5050629;28;20415;-90
2023/12/29 10:45:27;;;;;;;10.10;5.20;;;;;;;16.34;46.53;93376.47;5011990;28;20045;-88
2023/12/29 10:47:52;;;;;;;11.73;6.45;;;;;;;16.44;46.39;93381.19;5019373;28;20495;-87
2023/12/29 10:50:17;;;;;;;6.93;5.15;;;;;;;16.39;46.42;93376.47;5023588;28;20140;-89
2023/12/29 10:52:43;;;;;;;7.53;5.82;;;;;;;16.34;46.47;93381.94;5033282;28;20037;-88
2023/12/29 10:55:10;;;;;;;8.20;4.97;;;;;;;16.34;46.51;93379.22;5036628;28;20044;-89
2023/12/29 10:57:36;;;;;;;6.78;5.20;;;;;;;16.40;46.51;93383.44;5020097;28;20045;-87
2023/12/29 11:00:06;;;;;;;17.83;13.38;;;;;;;16.47;46.33;93371.25;5045397;28;20420;-87
2023/12/29 11:02:33;;;;;;;19.57;11.50;;;;;;;16.50;46.68;93366.78;5029822;28;20051;-87
2023/12/29 11:05:05;;;;;;;42.28;23.70;;;;;;;16.41;46.50;93365.06;5040233;28;20041;-89
2023/12/29 11:07:37;;;;;;;9.75;6.78;;;;;;;16.42;46.49;93350.19;5029216;28;20107;-92
2023/12/29 11:10:04;;;;;;;9.35;6.07;;;;;;;16.46;46.34;93345.94;5029754;28;20107;-92
2023/12/29 11:12:39;;;;;;;10.15;7.03;;;;;;;16.45;46.33;93335.56;5024642;28;20033;-91
2023/12/29 11:15:07;;;;;;;10.43;7.75;;;;;;;16.44;46.43;93336.81;5027175;28;20079;-91
2023/12/29 11:17:34;;;;;;;12.73;7.40;;;;;;;16.46;46.41;93342.47;5015017;28;20096;-91
2023/12/29 11:20:00;;;;;;;11.93;7.35;;;;;;;16.50;46.26;93336.75;5014403;28;20069;-91
2023/12/29 11:22:29;;;;;;;10.63;7.95;;;;;;;16.46;46.52;93343.22;5015665;28;20029;-92
2023/12/29 11:24:54;;;;;;;12.35;7.50;;;;;;;16.48;46.12;93350.91;5024353;28;20041;-90
2023/12/29 11:27:20;;;;;;;10.82;7.70;;;;;;;16.54;46.40;93345.44;5004696;28;20033;-91